Chandler, MN (56122)

2:21 AM CST on February 14, 2016 (GMT -0600)
Slayton | | Change Station
CLOSE
Current Station
Airport
Location: Slayton,
Elevation: 1624 ft
Nearby Weather Stations
Active Advisory: Winter Weather Advisory

Elev 1624 ft 43.99 °N, 95.78 °W | Updated 4 minutes ago

Snow
Snow
11 °F
Feels Like -8 °F
N
20
Wind Variable Wind from SE

Today
High -- | Low -- °F
--% Chance of Precip.
Yesterday
High -- | Low -- °F
Precip. -- in
Pressure 30.01 in
Visibility 1.5 miles
Clouds Mostly Cloudy 2000 ft
Mostly Cloudy 3000 ft
Overcast 4200 ft
Windchill -8 °F
Dew Point 10 °F
Humidity 94%
Rainfall 0.00 in
Snow Depth Not available.
7:24 AM 5:51 PM
Waxing Crescent, 39% visible
METAR KDVP 140817Z AUTO 14017KT 1 1/2SM -SN BKN020 BKN030 OVC042 M12/M12 A3001 RMK AO2 T11171125
Pressure 30.01 in
Visibility 1.5 miles
Clouds Mostly Cloudy 2000 ft
Mostly Cloudy 3000 ft
Overcast 4200 ft
Windchill -8 °F
Dew Point 10 °F
Humidity 94%
Rainfall 0.00 in
Snow Depth Not available.
7:24 AM 5:51 PM
Waxing Crescent, 39% visible
METAR KDVP 140817Z AUTO 14017KT 1 1/2SM -SN BKN020 BKN030 OVC042 M12/M12 A3001 RMK AO2 T11171125

10-Day Weather Forecast

Almanac

Astronomy

Feb. 14, 2016 Rise Set
Actual Time
Civil Twilight
Nautical Twilight
Astronomical Twilight
Moon
Length of Visible Light
Length of Day
Tomorrow will be .
, % of the Moon is Illuminated

Today's Extremes

State Highs State Lows

Community

WunderPhotos

Upload Photos

1,892,757 photos uploaded!

WunderBlog® & News

Nearby

Air Quality

  Air Quality AQ Index Pollutant
Not available.

Snow Depth

Station Depth Elevation

Earthquake Activity

City Distance Mag. Time & Date
Minimum magnitude displayed is 2.5.

Coastal Water Temperatures

Place Temperature

Stations

Nearby Weather Stations

Station Location Temp. Windchill Dew Point Humidity Wind Precip. Elev Updated Type
                   

Watches & Warnings

Winter Weather Advisory
Issued: 9:26 PM CST Feb. 13, 2016 – National Weather Service

... Winter Weather Advisory remains in effect until noon CST
Sunday...

* timing... intermittent snowfall will occur through the night. The
snowfall will then be ending Sunday morning.

* Accumulations... generally one and a half to 3 inches. However
there could be some locally higher amounts of 4 to 5 inches of
snow from Brookings South Dakota to Marshall Minnesota along
the Highway 14 corridor.

* Wind and visibility... southeast winds 20 to 30 mph could cause
visibilities to lower to less than a half mile in snow and
blowing snow in open areas. Brief whiteout conditions could be
possible after midnight tonight primarily in southwest
Minnesota.

Precautionary/preparedness actions...

A Winter Weather Advisory for snow and blowing snow means that
visibilities will be limited due to a combination of falling and
blowing snow. Use caution when traveling... especially in open
areas.